Aviation Digital Data Service (ADDS)

Output produced by METARs form (1515 UTC 19 April 2019)
found at http://www.aviationweather.gov/metar/data/
 
Forecast for: LERI (ALCANTARILLA(SP-, ES)
Text: TAF LERI 191400Z 1915/1924 34005KT 9999 FEW020 SCT030
Forecast period: 1500 UTC 19 April 2019 to 0000 UTC 20 April 2019
Forecast type: FROM: standard forecast or significant change
Winds: from the NNW (340 degrees) at 6 MPH (5 knots; 2.6 m/s)
Visibility: 6 or more miles 10+ km)
Ceiling: at least 12,000 feet AGL
Clouds: few clouds at 2000 feet AGL
scattered clouds at 3000 feet AGL
Weather: no significant weather forecast for this period
Text: TEMPO 1915/1924 4000 RA BKN012
Forecast period: 1500 UTC 19 April 2019 to 0000 UTC 20 April 2019
Forecast type: TEMPORARY: The following changes expected for less than half the time period
Visibility: 2.49 miles (4.01 km)
Ceiling: 1200 feet AGL
Clouds: broken clouds at 1200 feet AGL
Weather: RA  (moderate rain)